To NAV CANADA Home Page Login to a new session Search on AWWS site Feedback and Comments Disclaimer Vers la page française équivalente Tips FAQ What's new on the site To the Forecasts and Observations / NOTAM section To "File a Flight Plan" website Publications and other links Update of the User's profile FIC Telephone Numbers My Weather Data Folder Route Weather Data Regional Weather Data Local Weather Data To the Forecasts and Observations / NOTAM section
Request Generated 08/30/2016 at 17:02:04 UTC . Weather information available at that time is displayed.

METAR/TAF

HALIFAX/SHEARWATER/NS    

METAR CYAW 301600Z 28014KT 15SM FEW035 BKN240 22/10 A3003 RMK CU1CI2 DA1045FT SLP169=
METAR CYAW 301500Z 28007G16KT 15SM FEW035 BKN240 22/12 A3003 RMK CU1CI2 DA1075FT SLP171=
METAR CYAW 301400Z 33007KT 15SM FEW030 FEW180 FEW220 BKN260 20/12 A3004 RMK CU1AC1CC1CI2 DA841FT SLP174=

TAF CYAW 301112Z 3012/3024 30005KT P6SM FEW260
FM301400 30012KT P6SM BKN260
FM302200 VRB03KT P6SM SCT050 BKN180 BKN260
RMK NXT FCST BY 301800Z=
Your time UTC time
Weather data provided by Environment Canada and NAV CANADA